createdAt,value
2017-09-20T00:01:10.475Z,35.57
2017-09-20T00:03:38.907Z,35.77
2017-09-20T00:06:07.439Z,37.50
2017-09-20T00:08:35.867Z,40.50
2017-09-20T00:11:04.320Z,35.80
2017-09-20T00:13:32.783Z,37.80
2017-09-20T00:16:01.231Z,37.23
2017-09-20T00:18:29.663Z,45.93
2017-09-20T00:20:58.111Z,38.07
2017-09-20T00:23:27.306Z,43.03
2017-09-20T00:25:56.627Z,41.90
2017-09-20T00:28:25.112Z,48.07
2017-09-20T00:30:53.558Z,45.03
2017-09-20T00:33:22.795Z,48.87
2017-09-20T00:35:51.248Z,40.63
2017-09-20T00:38:20.439Z,46.97
2017-09-20T00:40:49.671Z,52.13
2017-09-20T00:43:18.095Z,53.17
2017-09-20T00:45:46.528Z,44.43
2017-09-20T00:48:15.020Z,44.63
2017-09-20T00:50:43.498Z,46.07
2017-09-20T00:53:11.947Z,48.10
2017-09-20T00:55:41.179Z,48.20
2017-09-20T00:58:09.627Z,54.33
2017-09-20T01:00:38.823Z,41.00
2017-09-20T01:03:08.039Z,48.97
2017-09-20T01:05:37.235Z,58.37
2017-09-20T01:08:06.554Z,37.77
2017-09-20T01:10:34.980Z,48.83
2017-09-20T01:13:03.523Z,53.33
2017-09-20T01:15:31.956Z,55.27
2017-09-20T01:18:00.483Z,48.03
2017-09-20T01:23:38.110Z,50.20
2017-09-20T01:26:06.588Z,45.13
2017-09-20T01:28:35.067Z,51.27
2017-09-20T01:31:03.536Z,55.03
2017-09-20T01:33:32.727Z,55.37
2017-09-20T01:36:01.919Z,47.97
2017-09-20T01:38:31.131Z,46.03
2017-09-20T01:40:59.570Z,46.60
2017-09-20T01:43:28.020Z,56.30
2017-09-20T01:45:56.447Z,63.07
2017-09-20T01:48:24.900Z,47.67
2017-09-20T01:50:53.348Z,44.77
2017-09-20T01:53:21.840Z,44.73
2017-09-20T01:55:50.271Z,41.90
2017-09-20T01:58:18.728Z,46.77
2017-09-20T02:00:47.146Z,56.93
2017-09-20T02:03:16.361Z,49.87
2017-09-20T02:05:45.563Z,54.60
2017-09-20T02:08:14.015Z,46.17
2017-09-20T02:10:42.438Z,54.90
2017-09-20T02:13:10.882Z,42.20
2017-09-20T02:15:39.317Z,41.60
2017-09-20T02:18:07.888Z,45.30
2017-09-20T02:20:36.324Z,47.93
2017-09-20T02:23:04.784Z,53.37
2017-09-20T02:25:33.327Z,48.00
2017-09-20T02:28:01.804Z,47.60
2017-09-20T02:30:30.235Z,44.77
2017-09-20T02:32:58.662Z,40.97
2017-09-20T02:35:27.165Z,44.50
2017-09-20T02:37:55.623Z,43.97
2017-09-20T02:40:24.125Z,48.60
2017-09-20T02:42:52.600Z,42.37
2017-09-20T02:45:21.057Z,44.17
2017-09-20T02:47:50.246Z,42.50
2017-09-20T02:50:19.471Z,44.80
2017-09-20T02:52:47.963Z,43.57
2017-09-20T02:55:16.421Z,38.77
2017-09-20T02:57:45.621Z,44.17
2017-09-20T03:00:14.845Z,43.07
2017-09-20T03:02:43.271Z,48.07
2017-09-20T03:05:11.779Z,54.50
2017-09-20T03:07:40.999Z,47.33
2017-09-20T03:10:09.460Z,45.17
2017-09-20T03:12:38.682Z,51.80
2017-09-20T03:15:07.141Z,51.63
2017-09-20T03:17:36.345Z,44.87
2017-09-20T03:20:05.648Z,46.27
2017-09-20T03:22:34.864Z,50.70
2017-09-20T03:25:03.358Z,60.23
2017-09-20T03:27:31.796Z,51.80
2017-09-20T03:30:01.025Z,46.80
2017-09-20T03:32:29.516Z,51.13
2017-09-20T03:34:57.986Z,46.33
2017-09-20T03:37:26.420Z,63.73
2017-09-20T03:39:54.895Z,49.93
2017-09-20T03:42:23.318Z,47.60
2017-09-20T03:44:52.520Z,49.70
2017-09-20T03:47:21.839Z,47.97
2017-09-20T03:49:50.319Z,47.30
2017-09-20T03:52:18.771Z,53.07
2017-09-20T03:54:47.998Z,46.73
2017-09-20T03:57:16.443Z,57.73
2017-09-20T03:59:44.876Z,50.00
2017-09-20T04:02:13.326Z,45.80
2017-09-20T04:04:42.524Z,44.80
2017-09-20T04:07:11.839Z,47.77
2017-09-20T04:09:40.272Z,41.30
2017-09-20T04:12:08.721Z,41.17
2017-09-20T04:14:37.183Z,43.57
2017-09-20T04:17:05.659Z,45.20
2017-09-20T04:19:34.089Z,39.20
2017-09-20T04:22:02.542Z,43.30
2017-09-20T04:24:30.980Z,39.70
2017-09-20T04:27:00.205Z,37.73
2017-09-20T04:29:28.690Z,44.17
2017-09-20T04:31:57.139Z,39.10
2017-09-20T04:34:26.335Z,40.10
2017-09-20T04:36:54.860Z,43.03
2017-09-20T04:39:23.344Z,43.40
2017-09-20T04:41:51.771Z,37.27
2017-09-20T04:44:20.228Z,36.97
2017-09-20T04:46:48.658Z,34.90
2017-09-20T04:49:17.881Z,35.07
2017-09-20T04:51:46.373Z,39.00
2017-09-20T04:54:14.831Z,34.17
2017-09-20T04:56:44.043Z,31.73
2017-09-20T04:59:12.501Z,38.20
2017-09-20T05:01:41.704Z,35.83
2017-09-20T05:04:10.932Z,35.27
2017-09-20T05:06:39.407Z,34.50
2017-09-20T05:09:07.855Z,31.60
2017-09-20T05:11:37.103Z,34.30
2017-09-20T05:14:05.563Z,36.20
2017-09-20T05:16:33.997Z,38.60
2017-09-20T05:19:02.444Z,32.10
2017-09-20T05:21:30.871Z,41.80
2017-09-20T05:23:59.394Z,32.73
2017-09-20T05:26:27.829Z,30.67
2017-09-20T05:28:57.787Z,34.37
2017-09-20T05:31:26.220Z,34.27
2017-09-20T05:33:54.676Z,34.17
2017-09-20T05:36:23.108Z,36.63
2017-09-20T05:38:52.343Z,30.93
2017-09-20T05:41:20.785Z,28.07
2017-09-20T05:43:50.014Z,33.00
2017-09-20T05:46:18.514Z,29.87
2017-09-20T05:48:46.975Z,29.17
2017-09-20T05:51:15.470Z,30.83
2017-09-20T05:53:43.960Z,33.37
2017-09-20T05:56:12.407Z,33.03
2017-09-20T05:58:41.619Z,26.90
2017-09-20T06:01:10.104Z,29.60
2017-09-20T06:03:38.603Z,29.67
2017-09-20T06:06:07.060Z,25.43
2017-09-20T06:08:35.551Z,26.67
2017-09-20T06:11:03.985Z,29.90
2017-09-20T06:13:32.411Z,35.20
2017-09-20T06:16:00.859Z,30.90
2017-09-20T06:18:29.374Z,27.33
2017-09-20T06:20:57.869Z,31.10
2017-09-20T06:23:26.349Z,28.43
2017-09-20T06:25:54.794Z,28.10
2017-09-20T06:28:23.987Z,34.67
2017-09-20T06:30:52.459Z,25.57
2017-09-20T06:33:20.894Z,31.83
2017-09-20T06:35:49.327Z,36.27
2017-09-20T06:38:18.542Z,29.10
2017-09-20T06:40:47.739Z,33.80
2017-09-20T06:43:16.959Z,36.93
2017-09-20T06:45:45.392Z,32.60
2017-09-20T06:48:13.842Z,30.70
2017-09-20T06:50:42.266Z,36.33
2017-09-20T06:53:10.714Z,31.53
2017-09-20T06:55:39.159Z,28.33
2017-09-20T06:58:07.616Z,28.10
2017-09-20T07:00:36.849Z,32.13
2017-09-20T07:03:05.314Z,27.70
2017-09-20T07:05:34.506Z,28.87
2017-09-20T07:08:03.729Z,29.43
2017-09-20T07:10:32.213Z,29.63
2017-09-20T07:13:00.664Z,28.73
2017-09-20T07:15:29.865Z,30.67
2017-09-20T07:17:59.083Z,25.10
2017-09-20T07:20:27.575Z,24.50
2017-09-20T07:22:56.155Z,25.27
2017-09-20T07:25:24.596Z,22.33
2017-09-20T07:27:53.130Z,22.90
2017-09-20T07:30:21.609Z,17.67
2017-09-20T07:32:50.064Z,23.70
2017-09-20T07:35:19.288Z,17.97
2017-09-20T07:37:47.762Z,19.50
2017-09-20T07:40:16.187Z,17.70
2017-09-20T07:42:44.736Z,15.87
2017-09-20T07:45:13.172Z,21.80
2017-09-20T07:47:41.691Z,16.63
2017-09-20T07:50:10.133Z,15.00
2017-09-20T07:52:38.565Z,20.10
2017-09-20T07:55:07.019Z,19.20
2017-09-20T07:57:36.245Z,14.57
2017-09-20T08:00:04.703Z,22.13
2017-09-20T08:02:33.920Z,17.30
2017-09-20T08:05:02.368Z,14.53
2017-09-20T08:07:31.595Z,19.77
2017-09-20T08:10:00.075Z,25.70
2017-09-20T08:12:28.568Z,20.87
2017-09-20T08:14:57.029Z,20.50
2017-09-20T08:17:26.252Z,20.67
2017-09-20T08:19:54.719Z,16.80
2017-09-20T08:22:23.212Z,23.37
2017-09-20T08:24:51.692Z,28.63
2017-09-20T08:27:20.119Z,16.83
2017-09-20T08:29:48.568Z,16.50
2017-09-20T08:32:16.990Z,19.13
2017-09-20T08:34:45.453Z,20.80
2017-09-20T08:37:14.003Z,15.70
2017-09-20T08:39:42.451Z,18.50
2017-09-20T08:42:11.687Z,15.90
2017-09-20T08:44:40.139Z,23.97
2017-09-20T08:47:09.373Z,15.43
2017-09-20T08:49:37.843Z,20.83
2017-09-20T08:52:06.277Z,19.57
2017-09-20T08:54:34.726Z,11.87
2017-09-20T08:57:03.183Z,15.60
2017-09-20T08:59:31.647Z,10.97
2017-09-20T09:02:00.835Z,19.17
2017-09-20T09:04:30.054Z,11.17
2017-09-20T09:06:58.540Z,9.57
2017-09-20T09:09:27.023Z,15.43
2017-09-20T09:11:55.502Z,11.00
2017-09-20T09:14:23.920Z,9.47
2017-09-20T09:16:52.373Z,10.63
2017-09-20T09:19:20.849Z,7.37
2017-09-20T09:21:49.304Z,14.83
2017-09-20T09:24:18.495Z,6.00
2017-09-20T09:26:47.011Z,7.83
2017-09-20T09:29:15.442Z,12.00
2017-09-20T09:31:43.889Z,5.90
2017-09-20T09:34:12.320Z,8.10
2017-09-20T09:36:40.782Z,12.67
2017-09-20T09:39:09.315Z,6.67
2017-09-20T09:41:37.799Z,5.60
2017-09-20T09:44:06.232Z,5.17
2017-09-20T09:46:34.763Z,6.20
2017-09-20T09:49:03.183Z,5.37
2017-09-20T09:51:31.727Z,4.83
2017-09-20T09:54:00.152Z,5.57
2017-09-20T09:56:28.708Z,14.37
2017-09-20T09:58:57.145Z,5.80
2017-09-20T10:01:26.368Z,6.50
2017-09-20T10:03:54.791Z,19.43
2017-09-20T10:06:23.254Z,4.47
2017-09-20T10:08:51.715Z,4.93
2017-09-20T10:11:20.148Z,3.77
2017-09-20T10:13:49.409Z,3.00
2017-09-20T10:16:17.844Z,3.40
2017-09-20T10:18:46.296Z,6.00
2017-09-20T10:21:14.961Z,4.50
2017-09-20T10:23:43.408Z,5.53
2017-09-20T10:26:12.603Z,2.70
2017-09-20T10:28:41.807Z,6.67
2017-09-20T10:31:11.009Z,3.33
2017-09-20T10:33:40.333Z,2.73
2017-09-20T10:36:08.764Z,2.67
2017-09-20T10:38:37.213Z,3.70
2017-09-20T10:41:05.644Z,3.03
2017-09-20T10:43:35.676Z,5.80
2017-09-20T10:46:04.862Z,2.90
2017-09-20T10:48:34.092Z,2.80
2017-09-20T10:51:02.511Z,11.53
2017-09-20T10:53:31.059Z,2.97
2017-09-20T10:55:59.489Z,7.37
2017-09-20T10:58:27.951Z,3.10
2017-09-20T11:00:56.400Z,7.13
2017-09-20T11:03:24.881Z,3.00
2017-09-20T11:05:53.332Z,7.03
2017-09-20T11:08:22.580Z,7.33
2017-09-20T11:10:51.020Z,6.80
2017-09-20T11:13:20.202Z,4.60
2017-09-20T11:15:48.647Z,4.90
2017-09-20T11:18:17.073Z,4.87
2017-09-20T11:20:46.292Z,3.03
2017-09-20T11:23:14.792Z,2.97
2017-09-20T11:25:43.235Z,2.70
2017-09-20T11:28:12.426Z,2.43
2017-09-20T11:30:40.949Z,2.10
2017-09-20T11:33:09.898Z,2.73
2017-09-20T11:35:38.376Z,13.47
2017-09-20T11:38:06.899Z,3.53
2017-09-20T11:40:35.348Z,5.47
2017-09-20T11:43:03.770Z,7.90
2017-09-20T11:45:32.211Z,5.33
2017-09-20T11:48:00.732Z,8.97
2017-09-20T11:50:29.181Z,1.97
2017-09-20T11:52:58.416Z,1.70
2017-09-20T11:55:26.856Z,2.23
2017-09-20T11:57:56.086Z,5.03
2017-09-20T12:00:24.537Z,2.20
2017-09-20T12:02:53.773Z,2.70
2017-09-20T12:05:22.256Z,1.57
2017-09-20T12:07:50.741Z,1.60
2017-09-20T12:10:19.224Z,2.83
2017-09-20T12:12:47.702Z,2.60
2017-09-20T12:15:16.183Z,3.23
2017-09-20T12:17:44.684Z,3.63
2017-09-20T12:20:13.124Z,1.70
2017-09-20T12:22:42.307Z,1.53
2017-09-20T12:25:10.761Z,2.80
2017-09-20T12:27:39.208Z,2.00
2017-09-20T12:30:07.676Z,2.13
2017-09-20T12:32:36.101Z,4.10
2017-09-20T12:35:04.526Z,7.90
2017-09-20T12:37:33.731Z,1.73
2017-09-20T12:40:02.916Z,3.13
2017-09-20T12:42:32.145Z,5.60
2017-09-20T12:45:00.568Z,1.90
2017-09-20T12:47:29.107Z,2.00
2017-09-20T12:49:57.531Z,2.70
2017-09-20T12:52:26.076Z,2.40
2017-09-20T12:54:54.503Z,1.60
2017-09-20T12:57:23.031Z,2.87
2017-09-20T12:59:51.456Z,1.80
2017-09-20T13:02:19.903Z,2.33
2017-09-20T13:04:48.379Z,6.23
2017-09-20T13:07:16.824Z,4.23
2017-09-20T13:09:45.338Z,2.60
2017-09-20T13:12:13.784Z,1.30
2017-09-20T13:14:42.302Z,1.63
2017-09-20T13:17:10.787Z,1.53
2017-09-20T13:19:39.267Z,1.13
2017-09-20T13:22:07.711Z,1.53
2017-09-20T13:24:36.130Z,3.13
2017-09-20T13:27:04.576Z,1.50
2017-09-20T13:29:33.096Z,4.33
2017-09-20T13:32:01.528Z,3.27
2017-09-20T13:34:30.064Z,1.07
2017-09-20T13:36:58.507Z,0.83
2017-09-20T13:39:26.930Z,4.57
2017-09-20T13:41:55.380Z,0.97
2017-09-20T13:44:24.572Z,1.20
2017-09-20T13:46:53.800Z,1.43
2017-09-20T13:49:22.304Z,1.73
2017-09-20T13:51:50.759Z,2.20
2017-09-20T13:54:19.192Z,1.30
2017-09-20T13:56:47.607Z,4.00
2017-09-20T13:59:16.811Z,2.53
2017-09-20T14:01:45.996Z,4.80
2017-09-20T14:04:15.224Z,2.90
2017-09-20T14:06:43.649Z,1.50
2017-09-20T14:09:12.086Z,1.43
2017-09-20T14:11:40.502Z,1.83
2017-09-20T14:14:08.947Z,1.77
2017-09-20T14:16:37.375Z,11.03
2017-09-20T14:19:05.907Z,2.20
2017-09-20T14:21:34.332Z,1.97
2017-09-20T14:24:02.871Z,7.40
2017-09-20T14:26:31.290Z,2.30
2017-09-20T14:28:59.838Z,5.03
2017-09-20T14:31:28.323Z,5.47
2017-09-20T14:33:56.768Z,4.03
2017-09-20T14:36:25.287Z,4.93
2017-09-20T14:38:53.767Z,4.40
2017-09-20T14:41:22.171Z,6.60
2017-09-20T14:43:50.626Z,4.20
2017-09-20T14:46:19.051Z,2.10
2017-09-20T14:48:47.490Z,1.53
2017-09-20T14:51:15.908Z,6.93
2017-09-20T14:53:44.368Z,4.30
2017-09-20T14:56:12.839Z,2.60
2017-09-20T14:58:41.316Z,3.33
2017-09-20T15:01:09.796Z,2.93
2017-09-20T15:03:38.279Z,3.33
2017-09-20T15:06:06.715Z,3.07
2017-09-20T15:08:35.134Z,4.47
2017-09-20T15:11:03.576Z,4.10
2017-09-20T15:13:31.996Z,6.17
2017-09-20T15:16:00.483Z,3.10
2017-09-20T15:18:28.907Z,3.83
2017-09-20T15:20:57.447Z,3.33
2017-09-20T15:23:25.867Z,3.83
2017-09-20T15:25:54.307Z,5.90
2017-09-20T15:28:22.735Z,2.90
2017-09-20T15:30:51.179Z,3.93
2017-09-20T15:33:19.604Z,14.87
2017-09-20T15:35:48.042Z,7.60
2017-09-20T15:38:16.511Z,6.30
2017-09-20T15:40:44.963Z,9.30
2017-09-20T15:43:13.387Z,1.60
2017-09-20T15:45:41.827Z,2.50
2017-09-20T15:48:10.253Z,1.60
2017-09-20T15:50:38.708Z,7.63
2017-09-20T15:53:07.892Z,4.40
2017-09-20T15:55:37.103Z,3.43
2017-09-20T15:58:06.323Z,1.87
2017-09-20T16:00:34.763Z,2.20
2017-09-20T16:03:03.279Z,3.17
2017-09-20T16:05:31.724Z,4.27
2017-09-20T16:08:00.147Z,2.50
2017-09-20T16:10:28.623Z,10.70
2017-09-20T16:12:57.067Z,4.40
2017-09-20T16:15:25.592Z,2.80
2017-09-20T16:17:54.031Z,28.00
2017-09-20T16:20:22.446Z,3.60
2017-09-20T16:22:50.882Z,4.73
2017-09-20T16:25:19.410Z,5.87
2017-09-20T16:27:51.699Z,12.67
2017-09-20T16:30:20.127Z,10.33
2017-09-20T16:32:48.647Z,4.60
2017-09-20T16:35:17.131Z,3.13
2017-09-20T16:37:45.577Z,7.03
2017-09-20T16:40:13.991Z,4.03
2017-09-20T16:42:42.684Z,9.20
2017-09-20T16:45:11.167Z,6.40
2017-09-20T16:47:39.612Z,23.03
2017-09-20T16:50:08.811Z,18.60
2017-09-20T16:52:38.043Z,3.97
2017-09-20T16:55:06.523Z,6.20
2017-09-20T16:57:35.002Z,8.00
2017-09-20T17:00:03.423Z,6.80
2017-09-20T17:02:31.887Z,3.20
2017-09-20T17:05:00.351Z,2.90
2017-09-20T17:07:28.775Z,6.23
2017-09-20T17:09:57.315Z,9.23
2017-09-20T17:12:25.731Z,5.70
2017-09-20T17:14:54.171Z,6.60
2017-09-20T17:17:22.659Z,8.83
2017-09-20T17:19:51.143Z,5.13
2017-09-20T17:22:19.572Z,11.90
2017-09-20T17:24:48.013Z,3.87
2017-09-20T17:27:16.431Z,4.40
2017-09-20T17:29:44.963Z,6.27
2017-09-20T17:32:13.444Z,4.60
2017-09-20T17:34:41.892Z,3.87
2017-09-20T17:37:10.406Z,4.03
2017-09-20T17:39:38.851Z,6.30
2017-09-20T17:42:08.091Z,4.37
2017-09-20T17:44:36.536Z,7.37
2017-09-20T17:47:04.954Z,6.40
2017-09-20T17:49:33.436Z,13.93
2017-09-20T17:52:01.879Z,8.97
2017-09-20T17:54:30.397Z,8.70
2017-09-20T17:56:58.839Z,7.13
2017-09-20T17:59:27.261Z,11.20
2017-09-20T18:01:55.717Z,6.93
2017-09-20T18:04:24.911Z,4.30
2017-09-20T18:06:54.122Z,2.80
2017-09-20T18:09:23.315Z,12.90
2017-09-20T18:11:52.513Z,2.73
2017-09-20T18:14:21.735Z,2.37
2017-09-20T18:16:50.182Z,11.50
2017-09-20T18:19:18.612Z,3.43
2017-09-20T18:21:47.066Z,8.13
2017-09-20T18:24:16.279Z,13.00
2017-09-20T18:26:44.723Z,10.83
2017-09-20T18:29:13.246Z,6.03
2017-09-20T18:31:41.725Z,7.93
2017-09-20T18:34:10.152Z,12.60
2017-09-20T18:36:38.580Z,23.87
2017-09-20T18:39:07.556Z,5.13
2017-09-20T18:41:36.751Z,10.67
2017-09-20T18:44:05.967Z,8.33
2017-09-20T18:46:34.463Z,6.53
2017-09-20T18:49:02.944Z,4.30
2017-09-20T18:51:31.371Z,7.20
2017-09-20T18:53:59.907Z,13.60
2017-09-20T18:56:28.327Z,3.23
2017-09-20T18:58:56.779Z,7.40
2017-09-20T19:01:25.257Z,6.77
2017-09-20T19:03:53.699Z,3.73
2017-09-20T19:06:22.891Z,4.13
2017-09-20T19:08:51.412Z,6.23
2017-09-20T19:11:19.835Z,14.00
2017-09-20T19:13:48.374Z,3.20
2017-09-20T19:16:16.855Z,4.70
2017-09-20T19:18:45.362Z,6.27
2017-09-20T19:21:13.784Z,5.50
2017-09-20T19:23:42.207Z,2.83
2017-09-20T19:26:10.652Z,3.00
2017-09-20T19:28:39.075Z,8.73
2017-09-20T19:31:07.520Z,3.83
2017-09-20T19:33:36.708Z,2.60
2017-09-20T19:36:05.155Z,4.77
2017-09-20T19:38:33.576Z,2.50
2017-09-20T19:41:02.791Z,2.97
2017-09-20T19:43:31.983Z,11.83
2017-09-20T19:46:01.196Z,2.70
2017-09-20T19:48:29.683Z,6.10
2017-09-20T19:50:58.127Z,4.43
2017-09-20T19:53:26.547Z,3.37
2017-09-20T19:55:55.005Z,4.67
2017-09-20T19:58:24.190Z,10.60
2017-09-20T20:00:52.631Z,3.87
2017-09-20T20:03:21.057Z,3.83
2017-09-20T20:05:50.297Z,3.00
2017-09-20T20:08:18.771Z,4.73
2017-09-20T20:10:47.250Z,3.17
2017-09-20T20:13:15.680Z,11.33
2017-09-20T20:15:44.123Z,5.50
2017-09-20T20:18:12.552Z,6.30
2017-09-20T20:20:40.994Z,2.97
2017-09-20T20:23:09.416Z,6.40
2017-09-20T20:25:37.864Z,8.23
2017-09-20T20:28:06.318Z,4.23
2017-09-20T20:30:34.798Z,5.37
2017-09-20T20:33:03.289Z,4.50
2017-09-20T20:35:31.722Z,4.03
2017-09-20T20:38:00.172Z,3.20
2017-09-20T20:40:28.600Z,2.83
2017-09-20T20:42:57.832Z,3.43
2017-09-20T20:45:26.255Z,3.30
2017-09-20T20:47:54.700Z,3.93
2017-09-20T20:50:23.132Z,2.90
2017-09-20T20:52:51.583Z,4.63
2017-09-20T20:55:20.035Z,3.27
2017-09-20T20:57:48.489Z,12.70
2017-09-20T21:00:17.732Z,11.90
2017-09-20T21:02:46.171Z,6.40
2017-09-20T21:05:15.392Z,4.73
2017-09-20T21:07:43.894Z,9.00
2017-09-20T21:10:12.335Z,13.27
2017-09-20T21:12:41.548Z,4.57
2017-09-20T21:15:09.981Z,5.23
2017-09-20T21:17:38.437Z,3.83
2017-09-20T21:20:06.855Z,3.27
2017-09-20T21:22:35.286Z,7.40
2017-09-20T21:25:03.769Z,5.33
2017-09-20T21:27:32.235Z,6.50
2017-09-20T21:30:00.732Z,4.70
2017-09-20T21:32:29.202Z,4.00
2017-09-20T21:34:57.647Z,9.37
2017-09-20T21:37:26.185Z,3.83
2017-09-20T21:39:54.636Z,2.73
2017-09-20T21:42:23.828Z,2.87
2017-09-20T21:44:53.146Z,3.73
2017-09-20T21:47:21.567Z,4.90
2017-09-20T21:49:50.003Z,6.87
2017-09-20T21:52:19.188Z,5.13
2017-09-20T21:54:49.236Z,4.33
2017-09-20T21:57:17.662Z,10.23
2017-09-20T21:59:46.116Z,3.40
2017-09-20T22:02:14.580Z,3.60
2017-09-20T22:04:43.063Z,4.63
2017-09-20T22:07:11.483Z,4.27
2017-09-20T22:09:40.014Z,3.20
2017-09-20T22:12:09.020Z,3.50
2017-09-20T22:14:37.443Z,6.03
2017-09-20T22:17:23.736Z,9.43
2017-09-20T22:20:10.091Z,4.20
2017-09-20T22:22:56.213Z,8.73
2017-09-20T22:25:42.384Z,15.50
2017-09-20T22:28:10.803Z,7.80
2017-09-20T22:30:39.228Z,4.47
2017-09-20T22:33:08.444Z,10.37
2017-09-20T22:35:36.873Z,4.00
2017-09-20T22:38:05.318Z,5.40
2017-09-20T22:40:33.786Z,12.07
2017-09-20T22:43:02.223Z,4.80
2017-09-20T22:45:30.755Z,4.90
2017-09-20T22:47:59.235Z,4.60
2017-09-20T22:50:27.664Z,4.67
2017-09-20T22:52:56.204Z,4.77
2017-09-20T22:55:24.627Z,4.30
2017-09-20T22:57:53.164Z,4.33
2017-09-20T23:00:21.657Z,11.00
2017-09-20T23:02:50.226Z,9.87
2017-09-20T23:05:18.652Z,8.20
2017-09-20T23:07:47.090Z,7.57
2017-09-20T23:10:15.571Z,8.83
2017-09-20T23:12:44.065Z,6.03
2017-09-20T23:15:12.507Z,7.53
2017-09-20T23:17:41.698Z,7.13
2017-09-20T23:20:10.218Z,8.73
2017-09-20T23:22:38.698Z,6.50
2017-09-20T23:25:07.139Z,5.80
2017-09-20T23:27:35.577Z,10.63
2017-09-20T23:30:04.066Z,9.23
2017-09-20T23:32:32.486Z,5.80
2017-09-20T23:35:01.726Z,10.63
2017-09-20T23:37:30.153Z,4.60
2017-09-20T23:39:58.705Z,5.50
2017-09-20T23:42:27.182Z,8.07
2017-09-20T23:44:55.629Z,6.20
2017-09-20T23:47:24.864Z,9.17
2017-09-20T23:49:53.312Z,8.70
2017-09-20T23:52:22.499Z,6.97
2017-09-20T23:54:51.719Z,15.33
2017-09-20T23:57:20.912Z,6.27
2017-09-20T23:59:50.231Z,7.23
